createdAt,value
2023-05-21T00:00:22.437Z,100400.44
2023-05-21T00:02:49.366Z,100397.50
2023-05-21T00:05:18.293Z,100405.03
2023-05-21T00:07:46.148Z,100393.13
2023-05-21T00:10:12.952Z,100397.88
2023-05-21T00:12:40.214Z,100402.19
2023-05-21T00:15:07.934Z,100405.38
2023-05-21T00:17:36.998Z,100394.91
2023-05-21T00:20:08.806Z,100394.63
2023-05-21T00:22:36.300Z,100388.28
2023-05-21T00:25:03.794Z,100393.31
2023-05-21T00:27:30.696Z,100390.25
2023-05-21T00:29:57.450Z,100387.63
2023-05-21T00:32:24.219Z,100388.03
2023-05-21T00:34:50.839Z,100384.09
2023-05-21T00:37:17.746Z,100386.22
2023-05-21T00:39:44.622Z,100375.41
2023-05-21T00:42:12.176Z,100376.88
2023-05-21T00:44:39.573Z,100373.16
2023-05-21T00:47:06.980Z,100369.69
2023-05-21T00:49:33.671Z,100369.16
2023-05-21T00:52:01.691Z,100371.50
2023-05-21T00:54:30.479Z,100365.81
2023-05-21T00:56:57.954Z,100362.53
2023-05-21T00:59:24.598Z,100360.28
2023-05-21T01:01:56.176Z,100362.22
2023-05-21T01:04:23.792Z,100355.16
2023-05-21T01:06:50.484Z,100347.38
2023-05-21T01:09:17.216Z,100354.81
2023-05-21T01:11:50.069Z,100354.22
2023-05-21T01:14:20.387Z,100348.84
2023-05-21T01:16:49.717Z,100343.34
2023-05-21T01:19:19.632Z,100339.03
2023-05-21T01:21:51.791Z,100337.09
2023-05-21T01:24:19.217Z,100329.19
2023-05-21T01:26:46.562Z,100336.53
2023-05-21T01:29:14.514Z,100331.53
2023-05-21T01:32:02.798Z,100331.72
2023-05-21T01:34:34.924Z,100324.88
2023-05-21T01:37:12.763Z,100328.31
2023-05-21T01:39:46.962Z,100318.09
2023-05-21T01:42:18.338Z,100318.53
2023-05-21T01:44:46.266Z,100321.88
2023-05-21T01:47:14.120Z,100318.28
2023-05-21T01:49:41.269Z,100319.81
2023-05-21T01:52:07.978Z,100318.47
2023-05-21T01:54:34.550Z,100319.78
2023-05-21T01:57:01.845Z,100329.94
2023-05-21T01:59:29.954Z,100324.06
2023-05-21T02:01:56.634Z,100317.06
2023-05-21T02:04:23.239Z,100309.84
2023-05-21T02:06:49.764Z,100316.81
2023-05-21T02:09:16.761Z,100309.69
2023-05-21T02:11:44.600Z,100312.47
2023-05-21T02:14:13.973Z,100311.88
2023-05-21T02:16:41.947Z,100315.19
2023-05-21T02:19:10.447Z,100308.22
2023-05-21T02:21:37.122Z,100308.72
2023-05-21T02:24:03.910Z,100305.03
2023-05-21T02:26:31.238Z,100306.75
2023-05-21T02:28:58.212Z,100313.66
2023-05-21T02:31:24.783Z,100298.34
2023-05-21T02:33:51.561Z,100308.06
2023-05-21T02:36:18.907Z,100308.34
2023-05-21T02:38:46.765Z,100297.75
2023-05-21T02:41:13.639Z,100300.09
2023-05-21T02:43:40.318Z,100301.91
2023-05-21T02:46:07.695Z,100315.38
2023-05-21T02:48:34.403Z,100301.34
2023-05-21T02:51:01.052Z,100303.44
2023-05-21T02:53:27.806Z,100303.31
2023-05-21T02:55:54.444Z,100305.22
2023-05-21T02:58:23.530Z,100299.22
2023-05-21T03:00:50.101Z,100298.91
2023-05-21T03:03:16.952Z,100298.34
2023-05-21T03:05:43.715Z,100305.13
2023-05-21T03:08:10.329Z,100305.88
2023-05-21T03:10:36.967Z,100306.59
2023-05-21T03:13:06.427Z,100297.81
2023-05-21T03:15:34.597Z,100291.09
2023-05-21T03:18:01.716Z,100293.97
2023-05-21T03:20:28.908Z,100294.31
2023-05-21T03:22:55.741Z,100291.91
2023-05-21T03:25:25.104Z,100295.94
2023-05-21T03:27:52.405Z,100294.06
2023-05-21T03:30:19.018Z,100295.06
2023-05-21T03:32:46.863Z,100290.53
2023-05-21T03:35:13.635Z,100292.28
2023-05-21T03:37:40.266Z,100281.03
2023-05-21T03:40:07.894Z,100285.69
2023-05-21T03:42:34.513Z,100277.28
2023-05-21T03:45:01.152Z,100287.16
2023-05-21T03:47:27.792Z,100282.47
2023-05-21T03:49:55.639Z,100283.81
2023-05-21T03:52:22.257Z,100280.19
2023-05-21T03:54:48.903Z,100293.09
2023-05-21T03:57:15.513Z,100288.59
2023-05-21T03:59:42.152Z,100285.16
2023-05-21T04:02:08.884Z,100290.03
2023-05-21T04:04:35.723Z,100289.72
2023-05-21T04:07:04.670Z,100285.84
2023-05-21T04:09:31.408Z,100294.25
2023-05-21T04:11:57.971Z,100293.84
2023-05-21T04:14:24.633Z,100290.59
2023-05-21T04:16:51.341Z,100286.72
2023-05-21T04:19:17.987Z,100297.25
2023-05-21T04:21:44.960Z,100299.41
2023-05-21T04:24:11.888Z,100302.19
2023-05-21T04:26:41.980Z,100305.13
2023-05-21T04:29:10.094Z,100306.00
2023-05-21T04:31:36.967Z,100303.06
2023-05-21T04:34:04.145Z,100302.31
2023-05-21T04:36:30.849Z,100304.66
2023-05-21T04:38:57.432Z,100308.81
2023-05-21T04:41:24.100Z,100306.72
2023-05-21T04:43:55.344Z,100307.50
2023-05-21T04:46:25.363Z,100311.31
2023-05-21T04:48:55.369Z,100307.97
2023-05-21T04:51:24.852Z,100308.25
2023-05-21T04:53:52.019Z,100305.38
2023-05-21T04:56:18.837Z,100311.53
2023-05-21T04:58:47.786Z,100304.56
2023-05-21T05:01:15.404Z,100305.97
2023-05-21T05:03:42.037Z,100307.22
2023-05-21T05:06:08.792Z,100312.22
2023-05-21T05:08:35.653Z,100315.00
2023-05-21T05:11:02.841Z,100316.75
2023-05-21T05:13:29.697Z,100307.09
2023-05-21T05:15:57.474Z,100313.84
2023-05-21T05:18:24.190Z,100307.56
2023-05-21T05:20:50.860Z,100307.22
2023-05-21T05:23:17.912Z,100307.09
2023-05-21T05:25:44.609Z,100313.94
2023-05-21T05:28:11.709Z,100308.75
2023-05-21T05:30:38.659Z,100305.13
2023-05-21T05:33:05.443Z,100299.63
2023-05-21T05:35:32.024Z,100302.13
2023-05-21T05:37:58.568Z,100295.28
2023-05-21T05:40:25.089Z,100298.13
2023-05-21T05:42:52.723Z,100290.25
2023-05-21T05:45:19.909Z,100304.28
2023-05-21T05:47:46.955Z,100301.59
2023-05-21T05:50:13.889Z,100295.28
2023-05-21T05:52:40.414Z,100301.06
2023-05-21T05:55:11.402Z,100303.06
2023-05-21T05:57:38.020Z,100304.47
2023-05-21T06:00:05.635Z,100302.66
2023-05-21T06:02:32.496Z,100295.19
2023-05-21T06:04:59.191Z,100298.16
2023-05-21T06:07:26.100Z,100298.97
2023-05-21T06:09:52.723Z,100298.38
2023-05-21T06:12:19.495Z,100297.59
2023-05-21T06:14:46.172Z,100301.13
2023-05-21T06:17:12.964Z,100304.91
2023-05-21T06:19:39.702Z,100301.41
2023-05-21T06:22:06.405Z,100312.34
2023-05-21T06:24:32.927Z,100298.06
2023-05-21T06:26:59.503Z,100306.56
2023-05-21T06:29:26.322Z,100301.72
2023-05-21T06:31:53.590Z,100302.91
2023-05-21T06:34:20.428Z,100308.25
2023-05-21T06:36:48.246Z,100301.81
2023-05-21T06:39:15.122Z,100296.81
2023-05-21T06:41:41.841Z,100298.28
2023-05-21T06:44:08.521Z,100291.66
2023-05-21T06:46:35.850Z,100293.38
2023-05-21T06:49:02.602Z,100293.81
2023-05-21T06:51:29.500Z,100294.13
2023-05-21T06:53:56.361Z,100294.47
2023-05-21T06:56:23.077Z,100298.00
2023-05-21T06:58:49.653Z,100295.81
2023-05-21T07:01:16.514Z,100295.53
2023-05-21T07:03:43.342Z,100298.63
2023-05-21T07:06:10.241Z,100297.59
2023-05-21T07:08:36.914Z,100298.69
2023-05-21T07:11:03.619Z,100297.53
2023-05-21T07:13:30.542Z,100305.88
2023-05-21T07:15:57.148Z,100302.16
2023-05-21T07:18:23.729Z,100302.16
2023-05-21T07:20:50.653Z,100301.97
2023-05-21T07:23:17.396Z,100300.16
2023-05-21T07:25:43.989Z,100297.44
2023-05-21T07:28:10.704Z,100299.22
2023-05-21T07:30:37.979Z,100304.25
2023-05-21T07:33:04.648Z,100304.06
2023-05-21T07:35:31.383Z,100299.50
2023-05-21T07:37:58.105Z,100290.88
2023-05-21T07:40:25.215Z,100288.16
2023-05-21T07:42:52.296Z,100285.31
2023-05-21T07:45:18.976Z,100280.66
2023-05-21T07:47:46.659Z,100285.22
2023-05-21T07:50:14.749Z,100287.09
2023-05-21T07:52:41.562Z,100284.06
2023-05-21T07:55:09.191Z,100284.00
2023-05-21T07:57:36.744Z,100287.47
2023-05-21T08:00:07.339Z,100282.63
2023-05-21T08:02:34.058Z,100283.97
2023-05-21T08:05:01.866Z,100284.53
2023-05-21T08:07:28.745Z,100284.88
2023-05-21T08:09:55.369Z,100279.44
2023-05-21T08:12:21.938Z,100279.72
2023-05-21T08:14:48.633Z,100284.25
2023-05-21T08:17:16.541Z,100286.00
2023-05-21T08:19:43.231Z,100280.00
2023-05-21T08:22:10.194Z,100294.34
2023-05-21T08:24:36.963Z,100286.00
2023-05-21T08:27:03.875Z,100290.88
2023-05-21T08:29:30.721Z,100289.13
2023-05-21T08:31:57.400Z,100293.41
2023-05-21T08:34:24.511Z,100288.50
2023-05-21T08:36:51.387Z,100284.22
2023-05-21T08:39:18.244Z,100280.25
2023-05-21T08:41:49.491Z,100284.84
2023-05-21T08:44:21.904Z,100280.94
2023-05-21T08:46:50.776Z,100281.50
2023-05-21T08:49:21.857Z,100292.25
2023-05-21T08:51:50.186Z,100286.16
2023-05-21T08:54:16.850Z,100277.28
2023-05-21T08:56:47.062Z,100279.78
2023-05-21T08:59:14.179Z,100279.53
2023-05-21T09:01:42.376Z,100278.28
2023-05-21T09:04:20.263Z,100273.31
2023-05-21T09:06:49.521Z,100267.91
2023-05-21T09:09:25.523Z,100273.25
2023-05-21T09:11:52.226Z,100266.25
2023-05-21T09:14:19.608Z,100269.75
2023-05-21T09:16:48.465Z,100272.25
2023-05-21T09:19:15.268Z,100274.56
2023-05-21T09:21:41.821Z,100270.19
2023-05-21T09:24:10.088Z,100266.75
2023-05-21T09:26:37.442Z,100260.41
2023-05-21T09:29:04.121Z,100262.25
2023-05-21T09:31:30.984Z,100259.16
2023-05-21T09:33:57.719Z,100253.78
2023-05-21T09:36:24.335Z,100260.00
2023-05-21T09:38:51.993Z,100255.25
2023-05-21T09:41:21.824Z,100265.31
2023-05-21T09:43:49.190Z,100253.31
2023-05-21T09:46:15.994Z,100247.03
2023-05-21T09:48:43.313Z,100253.56
2023-05-21T09:51:12.755Z,100261.25
2023-05-21T09:53:57.968Z,100253.00
2023-05-21T09:56:32.365Z,100250.72
2023-05-21T09:59:02.859Z,100254.09
2023-05-21T10:01:31.583Z,100241.03
2023-05-21T10:04:01.817Z,100250.59
2023-05-21T10:06:31.117Z,100243.22
2023-05-21T10:09:04.837Z,100235.00
2023-05-21T10:11:32.620Z,100235.72
2023-05-21T10:14:20.151Z,100232.78
2023-05-21T10:16:47.518Z,100229.53
2023-05-21T10:19:16.078Z,100230.56
2023-05-21T10:21:43.577Z,100224.09
2023-05-21T10:24:10.919Z,100224.50
2023-05-21T10:26:41.335Z,100224.41
2023-05-21T10:29:08.134Z,100225.53
2023-05-21T10:31:36.146Z,100218.34
2023-05-21T10:34:05.019Z,100219.38
2023-05-21T10:36:33.003Z,100217.31
2023-05-21T10:39:00.721Z,100205.03
2023-05-21T10:41:31.686Z,100219.66
2023-05-21T10:44:10.584Z,100216.84
2023-05-21T10:47:29.775Z,100208.25
2023-05-21T10:50:39.710Z,100213.13
2023-05-21T10:53:29.256Z,100207.16
2023-05-21T10:55:59.029Z,100204.22
2023-05-21T10:58:39.390Z,100208.66
2023-05-21T11:01:07.304Z,100200.56
2023-05-21T11:03:37.387Z,100212.75
2023-05-21T11:06:08.633Z,100205.00
2023-05-21T11:08:37.127Z,100213.16
2023-05-21T11:11:04.440Z,100209.09
2023-05-21T11:13:50.347Z,100215.03
2023-05-21T11:16:17.768Z,100212.94
2023-05-21T11:18:47.140Z,100212.47
2023-05-21T11:21:16.979Z,100215.03
2023-05-21T11:23:52.705Z,100209.13
2023-05-21T11:26:27.699Z,100212.69
2023-05-21T11:29:08.068Z,100204.44
2023-05-21T11:31:39.160Z,100195.75
2023-05-21T11:34:12.379Z,100197.06
2023-05-21T11:36:40.400Z,100193.84
2023-05-21T11:39:22.695Z,100197.94
2023-05-21T11:41:59.823Z,100200.66
2023-05-21T11:44:42.747Z,100191.09
2023-05-21T11:47:12.484Z,100199.66
2023-05-21T11:49:39.410Z,100190.03
2023-05-21T11:52:07.952Z,100194.06
2023-05-21T11:54:46.380Z,100188.75
2023-05-21T11:57:17.411Z,100191.34
2023-05-21T11:59:53.384Z,100185.50
2023-05-21T12:02:23.275Z,100194.59
2023-05-21T12:04:50.903Z,100188.31
2023-05-21T12:07:19.539Z,100187.66
2023-05-21T12:09:51.060Z,100193.84
2023-05-21T12:12:21.654Z,100184.13
2023-05-21T12:14:50.546Z,100183.50
2023-05-21T12:17:24.850Z,100183.19
2023-05-21T12:19:54.526Z,100178.91
2023-05-21T12:22:21.710Z,100181.69
2023-05-21T12:24:51.185Z,100181.19
2023-05-21T12:27:18.534Z,100177.88
2023-05-21T12:29:47.178Z,100179.69
2023-05-21T12:32:14.942Z,100180.78
2023-05-21T12:34:44.399Z,100182.66
2023-05-21T12:37:32.613Z,100179.56
2023-05-21T12:40:01.315Z,100186.31
2023-05-21T12:42:30.820Z,100188.47
2023-05-21T12:44:58.370Z,100188.31
2023-05-21T12:47:26.804Z,100183.13
2023-05-21T12:50:02.635Z,100175.13
2023-05-21T12:52:30.915Z,100186.34
2023-05-21T12:54:57.899Z,100185.25
2023-05-21T12:57:28.045Z,100186.97
2023-05-21T13:00:00.281Z,100181.31
2023-05-21T13:02:29.297Z,100193.19
2023-05-21T13:04:56.794Z,100193.28
2023-05-21T13:07:26.132Z,100181.72
2023-05-21T13:09:54.089Z,100172.66
2023-05-21T13:12:22.400Z,100174.81
2023-05-21T13:14:51.120Z,100189.16
2023-05-21T13:17:18.968Z,100179.69
2023-05-21T13:20:06.524Z,100167.47
2023-05-21T13:22:39.230Z,100170.69
2023-05-21T13:25:07.134Z,100169.97
2023-05-21T13:27:34.010Z,100169.69
2023-05-21T13:30:00.998Z,100174.50
2023-05-21T13:32:28.406Z,100162.03
2023-05-21T13:34:55.307Z,100154.75
2023-05-21T13:37:22.109Z,100166.50
2023-05-21T13:39:49.006Z,100166.78
2023-05-21T13:42:15.892Z,100167.75
2023-05-21T13:44:42.796Z,100168.63
2023-05-21T13:47:12.052Z,100167.81
2023-05-21T13:49:39.213Z,100165.16
2023-05-21T13:52:07.027Z,100163.44
2023-05-21T13:54:34.979Z,100171.06
2023-05-21T13:57:02.092Z,100166.16
2023-05-21T13:59:30.757Z,100166.50
2023-05-21T14:01:59.587Z,100161.91
2023-05-21T14:04:26.771Z,100152.06
2023-05-21T14:06:53.595Z,100150.13
2023-05-21T14:09:20.394Z,100156.63
2023-05-21T14:11:48.501Z,100158.81
2023-05-21T14:14:19.121Z,100157.03
2023-05-21T14:16:47.146Z,100156.03
2023-05-21T14:19:14.122Z,100143.25
2023-05-21T14:21:41.390Z,100144.84
2023-05-21T14:24:09.655Z,100147.66
2023-05-21T14:26:39.975Z,100150.97
2023-05-21T14:29:06.903Z,100146.38
2023-05-21T14:31:33.511Z,100141.56
2023-05-21T14:34:00.572Z,100148.88
2023-05-21T14:36:27.193Z,100147.09
2023-05-21T14:38:53.756Z,100139.47
2023-05-21T14:41:23.784Z,100140.59
2023-05-21T14:43:50.362Z,100140.19
2023-05-21T14:46:17.254Z,100150.38
2023-05-21T14:48:44.908Z,100139.31
2023-05-21T14:51:12.455Z,100147.38
2023-05-21T14:53:40.158Z,100141.13
2023-05-21T14:56:09.928Z,100139.41
2023-05-21T14:58:37.270Z,100135.13
2023-05-21T15:01:06.752Z,100137.47
2023-05-21T15:03:33.426Z,100134.56
2023-05-21T15:06:00.419Z,100138.00
2023-05-21T15:08:26.970Z,100146.22
2023-05-21T15:10:53.512Z,100138.84
2023-05-21T15:13:21.258Z,100143.88
2023-05-21T15:15:48.298Z,100133.31
2023-05-21T15:18:14.960Z,100127.97
2023-05-21T15:20:41.551Z,100133.41
2023-05-21T15:23:16.643Z,100141.63
2023-05-21T15:25:45.128Z,100134.16
2023-05-21T15:28:12.235Z,100128.00
2023-05-21T15:30:39.164Z,100132.19
2023-05-21T15:33:05.812Z,100117.97
2023-05-21T15:35:32.653Z,100125.47
2023-05-21T15:37:59.472Z,100134.75
2023-05-21T15:40:27.120Z,100122.88
2023-05-21T15:42:54.304Z,100118.44
2023-05-21T15:45:20.989Z,100117.41
2023-05-21T15:47:47.729Z,100117.63
2023-05-21T15:50:14.599Z,100116.47
2023-05-21T15:52:42.472Z,100114.00
2023-05-21T15:55:09.762Z,100106.09
2023-05-21T15:57:36.384Z,100108.53
2023-05-21T16:00:05.064Z,100109.91
2023-05-21T16:02:32.066Z,100112.59
2023-05-21T16:04:59.100Z,100113.56
2023-05-21T16:07:25.815Z,100108.78
2023-05-21T16:09:52.450Z,100101.34
2023-05-21T16:12:19.118Z,100113.81
2023-05-21T16:14:49.826Z,100107.53
2023-05-21T16:17:16.861Z,100112.59
2023-05-21T16:19:43.558Z,100109.63
2023-05-21T16:22:10.858Z,100114.59
2023-05-21T16:24:37.910Z,100105.66
2023-05-21T16:27:05.074Z,100105.25
2023-05-21T16:29:31.929Z,100118.59
2023-05-21T16:31:58.720Z,100106.81
2023-05-21T16:34:25.787Z,100104.75
2023-05-21T16:36:52.736Z,100108.88
2023-05-21T16:39:20.116Z,100116.63
2023-05-21T16:41:47.080Z,100114.59
2023-05-21T16:44:14.562Z,100113.84
2023-05-21T16:46:41.321Z,100111.53
2023-05-21T16:49:08.155Z,100108.38
2023-05-21T16:51:34.793Z,100111.34
2023-05-21T16:54:04.096Z,100109.22
2023-05-21T16:56:31.488Z,100112.81
2023-05-21T16:58:58.416Z,100110.09
2023-05-21T17:01:25.433Z,100112.25
2023-05-21T17:03:52.981Z,100112.91
2023-05-21T17:06:20.070Z,100117.38
2023-05-21T17:08:47.247Z,100107.13
2023-05-21T17:11:14.001Z,100120.22
2023-05-21T17:13:41.793Z,100120.25
2023-05-21T17:16:08.741Z,100115.84
2023-05-21T17:18:35.474Z,100115.84
2023-05-21T17:21:02.148Z,100114.81
2023-05-21T17:23:28.868Z,100122.25
2023-05-21T17:25:55.572Z,100113.22
2023-05-21T17:28:22.358Z,100113.63
2023-05-21T17:30:49.864Z,100117.91
2023-05-21T17:33:16.838Z,100116.06
2023-05-21T17:35:43.769Z,100121.56
2023-05-21T17:38:10.567Z,100119.53
2023-05-21T17:40:37.326Z,100120.84
2023-05-21T17:43:04.844Z,100129.25
2023-05-21T17:45:31.530Z,100129.97
2023-05-21T17:48:00.198Z,100131.28
2023-05-21T17:50:27.849Z,100135.72
2023-05-21T17:52:55.562Z,100121.81
2023-05-21T17:55:22.283Z,100124.28
2023-05-21T17:57:48.989Z,100129.50
2023-05-21T18:00:15.939Z,100133.50
2023-05-21T18:02:42.798Z,100128.03
2023-05-21T18:05:09.490Z,100135.75
2023-05-21T18:07:37.351Z,100127.03
2023-05-21T18:10:04.511Z,100130.25
2023-05-21T18:12:31.335Z,100128.25
2023-05-21T18:14:58.166Z,100120.34
2023-05-21T18:17:24.882Z,100135.75
2023-05-21T18:19:51.719Z,100130.28
2023-05-21T18:22:18.408Z,100119.34
2023-05-21T18:24:46.290Z,100125.31
2023-05-21T18:27:13.564Z,100118.78
2023-05-21T18:29:40.412Z,100118.25
2023-05-21T18:32:09.091Z,100122.03
2023-05-21T18:34:35.889Z,100123.00
2023-05-21T18:37:02.530Z,100122.41
2023-05-21T18:39:29.354Z,100127.63
2023-05-21T18:42:11.364Z,100110.41
2023-05-21T18:44:39.450Z,100134.81
2023-05-21T18:47:07.766Z,100134.72
2023-05-21T18:49:35.836Z,100132.69
2023-05-21T18:52:03.688Z,100120.63
2023-05-21T18:54:30.354Z,100135.50
2023-05-21T18:57:00.708Z,100137.63
2023-05-21T18:59:28.599Z,100124.28
2023-05-21T19:01:55.767Z,100136.88
2023-05-21T19:04:22.870Z,100131.91
2023-05-21T19:06:49.881Z,100133.22
2023-05-21T19:09:16.534Z,100124.63
2023-05-21T19:11:44.765Z,100113.63
2023-05-21T19:14:12.975Z,100128.53
2023-05-21T19:16:39.720Z,100133.97
2023-05-21T19:19:06.628Z,100143.75
2023-05-21T19:21:36.491Z,100135.69
2023-05-21T19:24:06.026Z,100135.16
2023-05-21T19:26:33.726Z,100140.38
2023-05-21T19:29:01.007Z,100142.94
2023-05-21T19:31:28.761Z,100122.50
2023-05-21T19:33:55.647Z,100146.97
2023-05-21T19:36:22.617Z,100138.63
2023-05-21T19:38:50.987Z,100144.44
2023-05-21T19:41:18.740Z,100146.75
2023-05-21T19:43:48.107Z,100150.88
2023-05-21T19:46:19.090Z,100155.19
2023-05-21T19:48:47.190Z,100150.66
2023-05-21T19:51:13.761Z,100150.16
2023-05-21T19:53:40.482Z,100149.31
2023-05-21T19:56:08.263Z,100149.66
2023-05-21T19:58:35.185Z,100147.03
2023-05-21T20:01:03.349Z,100150.31
2023-05-21T20:03:36.095Z,100157.88
2023-05-21T20:06:04.741Z,100152.19
2023-05-21T20:08:31.527Z,100162.25
2023-05-21T20:10:59.687Z,100159.47
2023-05-21T20:13:27.793Z,100157.41
2023-05-21T20:15:54.387Z,100152.66
2023-05-21T20:18:22.152Z,100137.63
2023-05-21T20:20:51.898Z,100154.03
2023-05-21T20:23:19.120Z,100150.34
2023-05-21T20:25:45.727Z,100150.50
2023-05-21T20:28:15.731Z,100148.81
2023-05-21T20:30:54.421Z,100157.44
2023-05-21T20:33:23.216Z,100160.91
2023-05-21T20:35:49.794Z,100150.69
2023-05-21T20:38:17.175Z,100170.16
2023-05-21T20:40:44.688Z,100172.28
2023-05-21T20:43:15.270Z,100165.78
2023-05-21T20:45:46.433Z,100170.94
2023-05-21T20:48:14.381Z,100160.97
2023-05-21T20:50:41.874Z,100162.94
2023-05-21T20:53:08.632Z,100149.84
2023-05-21T20:55:35.805Z,100162.19
2023-05-21T20:58:03.920Z,100159.19
2023-05-21T21:00:33.576Z,100154.81
2023-05-21T21:03:01.806Z,100160.38
2023-05-21T21:05:28.530Z,100153.78
2023-05-21T21:07:56.108Z,100156.63
2023-05-21T21:10:22.929Z,100163.41
2023-05-21T21:12:49.614Z,100149.25
2023-05-21T21:15:16.356Z,100161.16
2023-05-21T21:17:43.148Z,100159.34
2023-05-21T21:20:10.725Z,100165.22
2023-05-21T21:22:37.418Z,100171.59
2023-05-21T21:25:04.426Z,100170.38
2023-05-21T21:27:31.355Z,100164.94
2023-05-21T21:29:57.967Z,100166.59
2023-05-21T21:32:25.987Z,100171.25
2023-05-21T21:34:52.645Z,100164.91
2023-05-21T21:37:19.302Z,100176.53
2023-05-21T21:39:45.929Z,100173.22
2023-05-21T21:42:12.572Z,100172.47
2023-05-21T21:44:39.650Z,100179.84
2023-05-21T21:47:06.526Z,100173.97
2023-05-21T21:49:33.073Z,100178.50
2023-05-21T21:51:59.874Z,100172.47
2023-05-21T21:54:27.768Z,100177.28
2023-05-21T21:56:54.546Z,100179.66
2023-05-21T21:59:22.473Z,100179.72
2023-05-21T22:01:49.274Z,100165.88
2023-05-21T22:04:16.519Z,100172.31
2023-05-21T22:06:45.500Z,100166.47
2023-05-21T22:09:12.414Z,100162.22
2023-05-21T22:11:39.560Z,100163.00
2023-05-21T22:14:06.226Z,100173.69
2023-05-21T22:16:36.528Z,100165.84
2023-05-21T22:19:03.662Z,100171.50
2023-05-21T22:21:32.890Z,100173.63
2023-05-21T22:24:00.195Z,100168.66
2023-05-21T22:26:26.855Z,100171.84
2023-05-21T22:28:53.630Z,100171.72
2023-05-21T22:31:20.474Z,100172.28
2023-05-21T22:33:48.748Z,100175.72
2023-05-21T22:36:15.373Z,100177.06
2023-05-21T22:38:43.528Z,100173.00
2023-05-21T22:41:12.237Z,100173.44
2023-05-21T22:43:39.177Z,100170.94
2023-05-21T22:46:06.045Z,100168.88
2023-05-21T22:48:34.425Z,100162.72
2023-05-21T22:51:01.655Z,100163.78
2023-05-21T22:53:32.256Z,100171.59
2023-05-21T22:55:58.881Z,100171.13
2023-05-21T22:58:25.724Z,100172.91
2023-05-21T23:00:52.400Z,100173.53
2023-05-21T23:03:19.050Z,100181.03
2023-05-21T23:05:46.170Z,100180.34
2023-05-21T23:08:13.268Z,100182.63
2023-05-21T23:10:40.075Z,100171.66
2023-05-21T23:13:06.985Z,100172.84
2023-05-21T23:15:33.766Z,100179.63
2023-05-21T23:18:01.455Z,100182.16
2023-05-21T23:20:28.242Z,100172.91
2023-05-21T23:22:54.745Z,100174.78
2023-05-21T23:25:21.338Z,100183.31
2023-05-21T23:27:48.068Z,100172.00
2023-05-21T23:30:14.857Z,100176.66
2023-05-21T23:32:41.492Z,100179.69
2023-05-21T23:35:11.616Z,100174.63
2023-05-21T23:37:38.286Z,100172.44
2023-05-21T23:40:05.420Z,100181.69
2023-05-21T23:42:32.315Z,100177.56
2023-05-21T23:44:58.928Z,100180.16
2023-05-21T23:47:25.907Z,100174.03
2023-05-21T23:49:53.024Z,100175.03
2023-05-21T23:52:19.701Z,100180.06
2023-05-21T23:54:46.448Z,100179.44
2023-05-21T23:57:13.380Z,100172.03
2023-05-21T23:59:39.994Z,100178.44
